createdAt,value
2022-12-23T00:01:42.632Z,7.47
2022-12-23T00:04:11.867Z,6.80
2022-12-23T00:09:15.967Z,7.63
2022-12-23T00:12:13.100Z,9.60
2022-12-23T00:14:57.199Z,8.48
2022-12-23T00:17:26.727Z,9.52
2022-12-23T00:19:55.788Z,9.38
2022-12-23T00:22:45.836Z,9.85
2022-12-23T00:25:15.595Z,9.63
2022-12-23T00:28:01.198Z,9.38
2022-12-23T00:30:37.345Z,9.77
2022-12-23T00:33:06.865Z,9.98
2022-12-23T00:35:36.049Z,9.88
2022-12-23T00:38:05.267Z,10.00
2022-12-23T00:40:47.856Z,10.35
2022-12-23T00:43:17.124Z,12.02
2022-12-23T00:45:48.527Z,11.30
2022-12-23T00:48:30.740Z,11.98
2022-12-23T00:51:00.278Z,10.85
2022-12-23T00:53:29.782Z,11.57
2022-12-23T00:56:04.129Z,12.55
2022-12-23T00:58:35.186Z,12.23
2022-12-23T01:01:19.782Z,12.30
2022-12-23T01:04:01.837Z,12.15
2022-12-23T01:08:59.846Z,11.27
2022-12-23T01:11:29.071Z,11.93
2022-12-23T01:14:03.260Z,12.38
2022-12-23T01:16:34.451Z,11.60
2022-12-23T01:19:03.694Z,11.93
2022-12-23T01:21:32.903Z,12.38
2022-12-23T01:24:02.705Z,12.50
2022-12-23T01:26:31.901Z,13.02
2022-12-23T01:29:01.161Z,12.13
2022-12-23T01:31:30.762Z,11.95
2022-12-23T01:34:02.370Z,12.18
2022-12-23T01:36:31.682Z,11.02
2022-12-23T01:39:00.773Z,11.10
2022-12-23T01:41:50.711Z,12.07
2022-12-23T01:44:54.729Z,11.65
2022-12-23T01:47:39.589Z,10.95
2022-12-23T01:50:17.210Z,10.40
2022-12-23T01:52:51.557Z,11.52
2022-12-23T01:55:25.625Z,11.40
2022-12-23T01:57:58.499Z,11.07
2022-12-23T02:00:40.630Z,11.55
2022-12-23T02:06:19.950Z,12.50
2022-12-23T02:09:07.077Z,13.27
2022-12-23T02:11:54.262Z,14.77
2022-12-23T02:14:48.141Z,14.60
2022-12-23T02:17:27.577Z,13.48
2022-12-23T02:20:20.849Z,14.57
2022-12-23T02:23:30.761Z,14.13
2022-12-23T02:26:23.775Z,13.65
2022-12-23T02:29:12.419Z,14.73
2022-12-23T02:31:51.354Z,13.55
2022-12-23T02:34:25.442Z,14.65
2022-12-23T02:37:03.306Z,15.52
2022-12-23T02:39:39.771Z,15.60
2022-12-23T02:42:18.624Z,14.93
2022-12-23T02:45:01.178Z,14.48
2022-12-23T02:47:43.175Z,14.02
2022-12-23T02:50:17.914Z,13.57
2022-12-23T02:52:50.024Z,12.77
2022-12-23T02:55:29.777Z,12.38
2022-12-23T02:58:02.642Z,12.75
2022-12-23T03:00:33.536Z,14.25
2022-12-23T03:03:05.147Z,13.73
2022-12-23T03:05:38.644Z,15.60
2022-12-23T03:08:13.771Z,14.20
2022-12-23T03:10:57.305Z,13.98
2022-12-23T03:13:43.944Z,14.18
2022-12-23T03:16:21.680Z,14.60
2022-12-23T03:19:12.902Z,14.80
2022-12-23T03:21:48.930Z,14.32
2022-12-23T03:24:26.309Z,15.57
2022-12-23T03:27:03.175Z,14.20
2022-12-23T03:29:44.973Z,15.95
2022-12-23T03:32:16.317Z,15.07
2022-12-23T03:34:57.711Z,17.05
2022-12-23T03:37:30.123Z,16.15
2022-12-23T03:40:12.207Z,16.85
2022-12-23T03:42:44.545Z,17.70
2022-12-23T03:48:15.535Z,15.43
2022-12-23T03:50:48.164Z,15.23
2022-12-23T03:53:22.986Z,16.38
2022-12-23T03:56:07.690Z,14.95
2022-12-23T03:58:41.653Z,14.73
2022-12-23T04:01:20.215Z,16.02
2022-12-23T04:04:00.766Z,15.60
2022-12-23T04:06:44.253Z,15.07
2022-12-23T04:09:22.298Z,15.02
2022-12-23T04:11:57.241Z,15.18
2022-12-23T04:14:26.354Z,14.45
2022-12-23T04:17:01.609Z,13.65
2022-12-23T04:19:30.978Z,11.75
2022-12-23T04:22:02.047Z,11.73
2022-12-23T04:24:31.454Z,12.90
2022-12-23T04:27:00.527Z,12.77
2022-12-23T04:29:29.779Z,12.93
2022-12-23T04:31:59.013Z,13.85
2022-12-23T04:34:28.230Z,14.00
2022-12-23T04:36:57.323Z,14.23
2022-12-23T04:39:28.680Z,14.15
2022-12-23T04:42:03.017Z,13.02
2022-12-23T04:44:32.105Z,13.25
2022-12-23T04:47:01.839Z,12.52
2022-12-23T04:49:37.500Z,11.18
2022-12-23T04:52:07.026Z,11.93
2022-12-23T04:54:46.228Z,13.35
2022-12-23T04:57:16.895Z,12.68
2022-12-23T04:59:46.240Z,12.15
2022-12-23T05:02:15.592Z,13.00
2022-12-23T05:04:44.959Z,12.43
2022-12-23T05:07:14.544Z,12.95
2022-12-23T05:09:45.714Z,13.20
2022-12-23T05:12:19.991Z,12.75
2022-12-23T05:14:55.575Z,14.20
2022-12-23T05:19:59.833Z,14.23
2022-12-23T05:22:40.141Z,14.27
2022-12-23T05:25:11.744Z,14.48
2022-12-23T05:27:42.205Z,14.45
2022-12-23T05:30:16.720Z,14.70
2022-12-23T05:32:45.969Z,14.38
2022-12-23T05:35:18.094Z,15.07
2022-12-23T05:37:47.236Z,15.75
2022-12-23T05:40:23.453Z,15.60
2022-12-23T05:42:58.967Z,15.15
2022-12-23T05:45:28.232Z,15.23
2022-12-23T05:47:57.465Z,15.75
2022-12-23T05:50:26.769Z,15.98
2022-12-23T05:52:57.387Z,16.42
2022-12-23T05:55:28.932Z,14.98
2022-12-23T05:58:03.320Z,15.55
2022-12-23T06:00:32.462Z,15.75
2022-12-23T06:03:02.182Z,14.93
2022-12-23T06:05:31.611Z,15.00
2022-12-23T06:08:00.712Z,17.65
2022-12-23T06:10:31.937Z,16.35
2022-12-23T06:13:01.105Z,16.15
2022-12-23T06:15:30.328Z,15.40
2022-12-23T06:17:59.780Z,14.77
2022-12-23T06:20:29.051Z,15.55
2022-12-23T06:22:58.214Z,15.65
2022-12-23T06:25:27.384Z,14.68
2022-12-23T06:27:59.044Z,15.02
2022-12-23T06:30:28.345Z,15.00
2022-12-23T06:32:57.491Z,15.27
2022-12-23T06:35:26.623Z,16.10
2022-12-23T06:37:56.168Z,14.60
2022-12-23T06:40:25.487Z,14.45
2022-12-23T06:42:54.581Z,13.68
2022-12-23T06:45:26.196Z,13.40
2022-12-23T06:47:56.943Z,13.80
2022-12-23T06:50:26.190Z,13.80
2022-12-23T06:52:55.241Z,13.27
2022-12-23T06:55:24.455Z,12.95
2022-12-23T06:57:59.637Z,12.57
2022-12-23T07:00:35.700Z,12.60
2022-12-23T07:03:10.134Z,11.90
2022-12-23T07:05:39.389Z,11.52
2022-12-23T07:08:13.625Z,11.93
2022-12-23T07:10:42.970Z,11.05
2022-12-23T07:13:12.600Z,12.20
2022-12-23T07:15:43.846Z,13.20
2022-12-23T07:18:13.055Z,12.93
2022-12-23T07:20:42.124Z,13.48
2022-12-23T07:23:11.312Z,12.38
2022-12-23T07:25:40.304Z,13.05
2022-12-23T07:28:10.029Z,13.77
2022-12-23T07:30:39.154Z,12.90
2022-12-23T07:33:10.519Z,13.20
2022-12-23T07:35:41.798Z,12.77
2022-12-23T07:38:12.138Z,13.60
2022-12-23T07:40:41.377Z,12.77
2022-12-23T07:43:12.016Z,12.05
2022-12-23T07:45:41.411Z,12.93
2022-12-23T07:48:17.589Z,12.45
2022-12-23T07:50:46.873Z,12.32
2022-12-23T07:53:16.826Z,13.10
2022-12-23T07:55:50.129Z,12.23
2022-12-23T07:58:22.141Z,11.38
2022-12-23T08:00:51.248Z,12.93
2022-12-23T08:03:22.483Z,12.95
2022-12-23T08:06:02.278Z,13.98
2022-12-23T08:08:32.053Z,12.98
2022-12-23T08:11:02.729Z,13.77
2022-12-23T08:13:33.303Z,12.88
2022-12-23T08:16:14.787Z,13.23
2022-12-23T08:18:50.884Z,12.82
2022-12-23T08:21:31.606Z,13.70
2022-12-23T08:24:00.642Z,13.90
2022-12-23T08:26:34.990Z,13.52
2022-12-23T08:29:04.767Z,12.85
2022-12-23T08:31:33.899Z,14.13
2022-12-23T08:34:10.242Z,12.05
2022-12-23T08:36:41.641Z,13.93
2022-12-23T08:39:13.153Z,12.73
2022-12-23T08:41:45.317Z,14.75
2022-12-23T08:44:20.534Z,13.43
2022-12-23T08:46:54.889Z,13.65
2022-12-23T08:49:26.107Z,13.55
2022-12-23T08:51:55.380Z,14.00
2022-12-23T08:54:29.597Z,13.38
2022-12-23T08:57:00.095Z,15.07
2022-12-23T08:59:35.953Z,14.13
2022-12-23T09:02:05.796Z,14.85
2022-12-23T09:04:38.412Z,15.02
2022-12-23T09:07:07.728Z,14.15
2022-12-23T09:09:36.986Z,14.60
2022-12-23T09:12:11.524Z,13.20
2022-12-23T09:14:40.779Z,14.93
2022-12-23T09:17:09.847Z,15.65
2022-12-23T09:19:41.104Z,15.57
2022-12-23T09:22:15.270Z,15.45
2022-12-23T09:24:44.418Z,14.48
2022-12-23T09:27:13.699Z,14.13
2022-12-23T09:29:43.272Z,14.77
2022-12-23T09:32:17.982Z,14.20
2022-12-23T09:34:49.080Z,14.75
2022-12-23T09:37:18.227Z,13.85
2022-12-23T09:39:47.347Z,13.70
2022-12-23T09:42:30.059Z,15.20
2022-12-23T09:45:14.349Z,13.70
2022-12-23T09:50:30.539Z,13.13
2022-12-23T09:53:03.997Z,13.10
2022-12-23T09:55:47.951Z,13.82
2022-12-23T09:58:29.208Z,13.10
2022-12-23T10:01:17.854Z,9.68
2022-12-23T10:04:26.642Z,13.43
2022-12-23T10:07:19.865Z,13.55
2022-12-23T10:09:53.108Z,12.73
2022-12-23T10:12:40.061Z,12.57
2022-12-23T10:15:28.545Z,12.82
2022-12-23T10:18:01.876Z,13.40
2022-12-23T10:20:44.620Z,14.02
2022-12-23T10:23:20.106Z,14.13
2022-12-23T10:25:53.447Z,12.73
2022-12-23T10:28:22.712Z,13.90
2022-12-23T10:34:06.140Z,13.48
2022-12-23T10:36:49.142Z,13.68
2022-12-23T10:39:30.360Z,13.32
2022-12-23T10:42:10.736Z,13.20
2022-12-23T10:44:56.219Z,13.32
2022-12-23T10:47:37.908Z,13.07
2022-12-23T10:50:28.823Z,12.18
2022-12-23T10:53:02.079Z,12.15
2022-12-23T10:55:37.851Z,13.80
2022-12-23T10:58:17.932Z,13.32
2022-12-23T11:00:52.515Z,11.77
2022-12-23T11:03:33.275Z,12.10
2022-12-23T11:06:03.928Z,12.48
2022-12-23T11:08:40.132Z,12.07
2022-12-23T11:11:13.458Z,12.05
2022-12-23T11:13:45.215Z,11.63
2022-12-23T11:16:21.364Z,10.43
2022-12-23T11:18:59.278Z,10.80
2022-12-23T11:21:29.361Z,10.88
2022-12-23T11:24:18.122Z,11.15
2022-12-23T11:26:51.288Z,10.38
2022-12-23T11:29:26.666Z,11.18
2022-12-23T11:32:14.747Z,10.90
2022-12-23T11:35:01.079Z,9.95
2022-12-23T11:37:38.205Z,10.82
2022-12-23T11:40:16.496Z,10.45
2022-12-23T11:43:15.352Z,11.55
2022-12-23T11:45:49.834Z,11.57
2022-12-23T11:48:30.699Z,11.55
2022-12-23T11:51:03.531Z,10.90
2022-12-23T11:53:33.203Z,10.05
2022-12-23T11:56:18.955Z,10.10
2022-12-23T11:59:00.555Z,10.50
2022-12-23T12:01:30.274Z,11.43
2022-12-23T12:04:02.869Z,9.25
2022-12-23T12:09:15.665Z,9.57
2022-12-23T12:11:55.326Z,7.95
2022-12-23T12:14:47.168Z,10.48
2022-12-23T12:17:22.703Z,11.18
2022-12-23T12:20:04.766Z,10.75
2022-12-23T12:22:42.364Z,9.95
2022-12-23T12:25:19.824Z,10.85
2022-12-23T12:28:07.105Z,10.65
2022-12-23T12:30:54.323Z,8.82
2022-12-23T12:33:29.659Z,9.45
2022-12-23T12:36:09.043Z,9.65
2022-12-23T12:39:00.639Z,8.50
2022-12-23T12:41:36.082Z,10.05
2022-12-23T12:44:15.512Z,10.25
2022-12-23T12:46:52.644Z,9.75
2022-12-23T12:55:08.957Z,8.60
2022-12-23T13:00:45.398Z,8.70
2022-12-23T13:03:47.170Z,9.05
2022-12-23T13:06:28.960Z,8.98
2022-12-23T13:09:09.301Z,7.53
2022-12-23T13:11:50.225Z,8.52
2022-12-23T13:14:43.277Z,8.45
2022-12-23T13:17:34.459Z,9.05
2022-12-23T13:20:27.435Z,8.70
2022-12-23T13:23:34.268Z,8.25
2022-12-23T13:26:16.694Z,7.63
2022-12-23T13:29:02.245Z,7.28
2022-12-23T13:31:55.968Z,7.20
2022-12-23T13:34:48.516Z,6.57
2022-12-23T13:37:39.808Z,6.18
2022-12-23T13:40:30.977Z,6.53
2022-12-23T13:43:06.519Z,5.90
2022-12-23T13:45:39.916Z,6.20
2022-12-23T13:48:29.350Z,6.25
2022-12-23T13:51:05.114Z,5.78
2022-12-23T13:54:05.113Z,5.30
2022-12-23T13:57:05.823Z,5.35
2022-12-23T13:59:42.026Z,5.47
2022-12-23T14:05:40.508Z,5.28
2022-12-23T14:08:33.355Z,4.85
2022-12-23T14:11:10.198Z,5.22
2022-12-23T14:13:51.318Z,4.63
2022-12-23T14:16:47.364Z,4.90
2022-12-23T14:19:45.232Z,4.95
2022-12-23T14:22:40.760Z,5.22
2022-12-23T14:25:48.301Z,4.25
2022-12-23T14:28:56.966Z,4.55
2022-12-23T14:31:35.359Z,5.00
2022-12-23T14:34:41.240Z,4.82
2022-12-23T14:37:38.406Z,5.00
2022-12-23T14:42:56.799Z,5.13
2022-12-23T14:45:50.505Z,6.35
2022-12-23T14:49:15.909Z,6.07
2022-12-23T14:51:43.713Z,8.45
2022-12-23T14:54:20.535Z,7.28
2022-12-23T14:57:21.478Z,6.00
2022-12-23T15:00:18.428Z,6.82
2022-12-23T15:03:10.089Z,5.93
2022-12-23T15:05:53.796Z,6.45
2022-12-23T15:08:32.650Z,5.57
2022-12-23T15:11:20.405Z,5.78
2022-12-23T15:13:56.843Z,5.13
2022-12-23T15:16:33.357Z,5.55
2022-12-23T15:19:04.696Z,5.45
2022-12-23T15:21:39.125Z,5.80
2022-12-23T15:24:16.141Z,5.47
2022-12-23T15:27:25.097Z,4.85
2022-12-23T15:29:46.944Z,5.30
2022-12-23T15:34:51.535Z,4.80
2022-12-23T15:37:44.162Z,5.28
2022-12-23T15:40:26.536Z,5.70
2022-12-23T15:43:19.117Z,5.95
2022-12-23T15:46:06.626Z,5.97
2022-12-23T15:48:42.595Z,6.25
2022-12-23T15:51:30.582Z,6.00
2022-12-23T15:54:08.999Z,6.57
2022-12-23T15:56:50.797Z,6.72
2022-12-23T15:59:31.640Z,7.07
2022-12-23T16:02:49.575Z,7.07
2022-12-23T16:07:59.284Z,7.07
2022-12-23T16:13:13.447Z,9.02
2022-12-23T16:15:57.685Z,8.45
2022-12-23T16:18:31.290Z,9.80
2022-12-23T16:21:04.181Z,9.10
2022-12-23T16:23:36.938Z,9.65
2022-12-23T16:26:13.441Z,9.57
2022-12-23T16:28:45.098Z,10.10
2022-12-23T16:31:24.654Z,9.60
2022-12-23T16:33:56.843Z,10.32
2022-12-23T16:36:35.718Z,11.63
2022-12-23T16:39:17.985Z,14.32
2022-12-23T16:44:15.914Z,13.63
2022-12-23T16:47:08.832Z,12.93
2022-12-23T16:49:39.224Z,12.93
2022-12-23T16:52:14.279Z,14.65
2022-12-23T16:54:43.920Z,14.40
2022-12-23T16:57:26.035Z,16.25
2022-12-23T17:00:00.159Z,15.10
2022-12-23T17:02:34.170Z,17.05
2022-12-23T17:05:16.471Z,15.32
2022-12-23T17:07:57.884Z,16.10
2022-12-23T17:10:27.153Z,16.08
2022-12-23T17:12:56.332Z,15.55
2022-12-23T17:15:43.656Z,15.98
2022-12-23T17:18:20.171Z,14.38
2022-12-23T17:21:03.906Z,17.27
2022-12-23T17:23:34.496Z,18.50
2022-12-23T17:26:16.606Z,18.52
2022-12-23T17:28:46.242Z,17.20
2022-12-23T17:31:26.995Z,18.92
2022-12-23T17:34:14.050Z,17.23
2022-12-23T17:36:56.333Z,15.90
2022-12-23T17:39:38.542Z,16.25
2022-12-23T17:42:17.767Z,16.58
2022-12-23T17:44:51.131Z,14.90
2022-12-23T17:47:22.091Z,15.52
2022-12-23T17:49:53.404Z,16.02
2022-12-23T17:52:24.035Z,15.73
2022-12-23T17:54:53.542Z,16.52
2022-12-23T17:57:37.448Z,8.02
2022-12-23T18:00:07.723Z,14.95
2022-12-23T18:02:47.444Z,14.65
2022-12-23T18:05:25.453Z,14.95
2022-12-23T18:07:55.795Z,15.43
2022-12-23T18:10:27.700Z,15.75
2022-12-23T18:15:28.334Z,14.27
2022-12-23T18:18:20.330Z,8.43
2022-12-23T18:21:10.836Z,13.45
2022-12-23T18:23:45.085Z,13.15
2022-12-23T18:26:16.510Z,11.90
2022-12-23T18:28:46.129Z,12.13
2022-12-23T18:31:17.921Z,21.30
2022-12-23T18:36:24.681Z,13.20
2022-12-23T18:39:08.523Z,11.90
2022-12-23T18:41:57.192Z,11.27
2022-12-23T18:47:21.758Z,10.80
2022-12-23T18:49:56.079Z,10.50
2022-12-23T18:52:27.138Z,10.73
2022-12-23T18:55:14.362Z,11.32
2022-12-23T18:57:56.518Z,10.57
2022-12-23T19:00:28.677Z,10.77
2022-12-23T19:03:11.707Z,9.70
2022-12-23T19:05:53.918Z,9.35
2022-12-23T19:08:27.973Z,8.90
2022-12-23T19:11:02.918Z,9.07
2022-12-23T19:13:32.820Z,8.98
2022-12-23T19:16:02.540Z,8.93
2022-12-23T19:18:31.883Z,8.82
2022-12-23T19:21:18.562Z,9.90
2022-12-23T19:23:49.892Z,11.05
2022-12-23T19:26:19.207Z,9.93
2022-12-23T19:28:49.535Z,9.95
2022-12-23T19:31:28.014Z,10.27
2022-12-23T19:33:57.514Z,9.48
2022-12-23T19:36:26.721Z,9.68
2022-12-23T19:38:58.567Z,8.98
2022-12-23T19:41:40.855Z,9.38
2022-12-23T19:44:15.355Z,9.35
2022-12-23T19:46:44.683Z,10.02
2022-12-23T19:49:19.454Z,8.20
2022-12-23T19:52:03.028Z,8.70
2022-12-23T19:54:34.634Z,9.35
2022-12-23T19:57:16.870Z,9.70
2022-12-23T19:59:46.043Z,8.60
2022-12-23T20:02:33.827Z,8.60
2022-12-23T20:05:15.939Z,8.77
2022-12-23T20:10:15.967Z,8.00
2022-12-23T20:12:45.109Z,7.90
2022-12-23T20:15:14.306Z,8.75
2022-12-23T20:17:56.413Z,8.40
2022-12-23T20:23:08.465Z,8.70
2022-12-23T20:25:39.538Z,8.82
2022-12-23T20:28:08.768Z,8.70
2022-12-23T20:30:50.862Z,8.68
2022-12-23T20:33:30.961Z,9.32
2022-12-23T20:36:00.171Z,8.38
2022-12-23T20:38:29.607Z,9.23
2022-12-23T20:41:07.460Z,9.23
2022-12-23T20:43:36.609Z,8.43
2022-12-23T20:46:07.399Z,8.52
2022-12-23T20:48:50.018Z,8.07
2022-12-23T20:51:23.300Z,7.25
2022-12-23T20:54:06.074Z,8.15
2022-12-23T20:56:37.291Z,7.35
2022-12-23T20:59:06.428Z,7.82
2022-12-23T21:04:29.735Z,7.88
2022-12-23T21:06:58.901Z,8.10
2022-12-23T21:09:34.473Z,8.43
2022-12-23T21:12:19.407Z,8.05
2022-12-23T21:14:55.429Z,7.80
2022-12-23T21:17:25.560Z,7.88
2022-12-23T21:19:54.716Z,8.88
2022-12-23T21:22:28.881Z,7.55
2022-12-23T21:25:16.057Z,8.10
2022-12-23T21:27:47.237Z,8.65
2022-12-23T21:30:16.920Z,6.18
2022-12-23T21:32:46.032Z,7.95
2022-12-23T21:35:15.762Z,7.53
2022-12-23T21:37:57.830Z,7.88
2022-12-23T21:40:27.202Z,7.57
2022-12-23T21:42:59.957Z,7.38
2022-12-23T21:45:36.009Z,7.32
2022-12-23T21:48:05.374Z,7.43
2022-12-23T21:50:35.142Z,7.82
2022-12-23T21:53:22.391Z,8.30
2022-12-23T21:56:04.572Z,7.60
2022-12-23T21:58:49.957Z,5.95
2022-12-23T22:01:21.655Z,5.32
2022-12-23T22:03:52.861Z,6.72
2022-12-23T22:06:27.581Z,6.60
2022-12-23T22:09:02.178Z,5.93
2022-12-23T22:11:33.009Z,6.28
2022-12-23T22:14:13.182Z,7.30
2022-12-23T22:16:55.337Z,6.90
2022-12-23T22:19:42.657Z,6.22
2022-12-23T22:22:24.742Z,7.20
2022-12-23T22:24:54.063Z,6.35
2022-12-23T22:27:36.072Z,6.53
2022-12-23T22:32:47.582Z,5.05
2022-12-23T22:35:16.907Z,6.10
2022-12-23T22:37:46.373Z,6.82
2022-12-23T22:40:33.711Z,4.57
2022-12-23T22:43:02.988Z,6.13
2022-12-23T22:45:34.595Z,6.70
2022-12-23T22:48:10.293Z,5.70
2022-12-23T22:50:40.129Z,6.25
2022-12-23T22:53:10.297Z,6.45
2022-12-23T22:55:39.452Z,6.50
2022-12-23T22:58:08.663Z,5.55
2022-12-23T23:00:45.981Z,5.25
2022-12-23T23:03:15.324Z,6.20
2022-12-23T23:05:44.756Z,5.72
2022-12-23T23:08:31.880Z,6.10
2022-12-23T23:11:16.287Z,5.72
2022-12-23T23:13:45.511Z,5.70
2022-12-23T23:16:16.987Z,5.32
2022-12-23T23:18:46.359Z,5.05
2022-12-23T23:21:21.405Z,5.88
2022-12-23T23:23:50.858Z,5.75
2022-12-23T23:26:20.678Z,6.45
2022-12-23T23:31:42.086Z,6.32
2022-12-23T23:34:30.495Z,7.38
2022-12-23T23:37:12.854Z,7.53
2022-12-23T23:40:01.779Z,7.25
2022-12-23T23:42:32.589Z,8.40
2022-12-23T23:45:13.887Z,8.35
2022-12-23T23:47:58.093Z,8.43
2022-12-23T23:50:27.328Z,9.90
2022-12-23T23:52:56.511Z,9.70
2022-12-23T23:55:50.007Z,10.18
2022-12-23T23:58:34.306Z,11.02
